Atkinson, Nebraska
Current Conditions -  °F | °C
As of 4:15 PM on Monday 26 Jan 2015 (Local Time) from KONL Reporting Station
Clear Clear  
Wind Chill: 57°   Ceiling: Unl
Heat Index: 57°   Visibility: 10mi
Dew Point: 32°   Wind: 10mph
Humidity: 39%   Direction: 320°NW
Pressure: 30"   Gusts: NA
Location:  42.53°N, 98.98°W
Report Text: KONL 262215Z AUTO 32009KT 10SM CLR 14/00 A3000 RMK AO2 T01380001
Loading
Personal Weather Stations






























Interactive Weather Map New forecast layout! Learn more

10-Day Weather Forecast

Advertisements
Track Severe Weather on mobile